A- A+ FrançaisEnglishEspañol中国

Services sur Internet Soldes sur Internet Des idées de cadeaux Météo Météo aéro

La météo à : Autours de vous Tarbes-Lourdes-PyrénéesLille-Marcq-En-Baroeul Lille-Lesquin Paris-Charles-De-Gaulle

manche à air

La météo aéronautique pour les pilotes, la préparation du vol avec les METAR (METeorological Aerodrome Report, message d'observation des conditions météorologiques pour l'aviation) et Les TAF (Terminal Aerodrome Forecast : message de prévision à court terme des conditions météorologiques pour l'aviation). Et les autres ressources comme les VAC (Visual Approch Chart) et les NOTAM (Notice To Airman) pour préprer les vols.

Aéroport Oran Es Senia (Algérie) / OACI DAOO/ IATA ORN

L'altitude de l'aéroport Oran Es Senia est de 90 m = 295 ft. Il est situé à proximité de Oran (Algérie). La météo générale à 5 jours est disponible pour Oran situé à 7.7 km.

METAR de l'aéroport Oran Es Senia - DAOO

DAOO 102030Z 22006KT 9999 FEW016 13/12 Q1025

Décodage du METAR de l'aéroport Oran Es Senia (DZ)

METAR émis par DAOO le mardi 10 décembre 2019 à 20:30 heure TU. Attention ce METAR est obsolète car il a été émis il y a 3 heure et 51 minutes.

La visibilité est de supérieure à 10 km = supérieure à 6.2 sm.

La température est de 13°C = 55 °F et le point rosée est de 12°C = 54 °F . Ce qui correspond à 94% d'humidité relative.

Le QNH est de 1025 hPa = 30.27 inHg

Vent de 6 kt = 11 km/h, orienté à 220°.

Nuages : Quelques nuages à 1600 ft = 490 mètres.

TAF de l'aéroport Oran Es Senia - DAOO

DAOO 101700Z 1018/1118 26010KT 9999 FEW016

DAOO 101700Z 1018/1118 26010KT 9999 quelques nuages à 016

Aéroport à proximité de Oran Es Senia

Météo générale à 5 jours à Oran (7.7 km)Aéroport Oran Tafaroui (12 km)Aéroport Bou Sfer (21 km)Aéroport Sidi Bel Abbes (50 km)Aéroport Ghriss (84 km)Aéroport Zenata Messali el Hadj (101 km)Aéroport Relizane (114 km)

Vue aérienne de l'aéroport Oran Es Senia

NOTAM de l'aéroport Oran Es Senia

Les NOTAM sont fournis sans aucune garantie de leur actualité. Le pilote est le seul responsable de la vérification de sa validité avant de l'utiliser opérationnellement pour préparer un vol ou l'utiliser lors de sa navigation.

Pas de NOTAM

Sources des données